sensor_id;sensor_type;location;lat;lon;timestamp;temperature;humidity
46091;DHT22;31826;53.572;10.170;2023-02-28T00:00:23;2.90;99.90
46091;DHT22;31826;53.572;10.170;2023-02-28T00:02:49;2.80;99.90
46091;DHT22;31826;53.572;10.170;2023-02-28T00:05:18;2.80;99.90
46091;DHT22;31826;53.572;10.170;2023-02-28T00:07:44;2.80;99.90
46091;DHT22;31826;53.572;10.170;2023-02-28T00:10:17;2.90;99.90
46091;DHT22;31826;53.572;10.170;2023-02-28T00:12:54;2.90;99.90
46091;DHT22;31826;53.572;10.170;2023-02-28T00:15:23;2.90;99.90
46091;DHT22;31826;53.572;10.170;2023-02-28T00:17:49;2.90;99.90
46091;DHT22;31826;53.572;10.170;2023-02-28T00:20:15;2.90;99.90
46091;DHT22;31826;53.572;10.170;2023-02-28T00:22:49;2.90;99.90
46091;DHT22;31826;53.572;10.170;2023-02-28T00:25:18;2.90;99.90
46091;DHT22;31826;53.572;10.170;2023-02-28T00:27:45;2.90;99.90
46091;DHT22;31826;53.572;10.170;2023-02-28T00:30:17;2.80;99.90
46091;DHT22;31826;53.572;10.170;2023-02-28T00:32:43;2.90;99.90
46091;DHT22;31826;53.572;10.170;2023-02-28T00:35:10;2.70;99.90
46091;DHT22;31826;53.572;10.170;2023-02-28T00:37:36;2.70;99.90
46091;DHT22;31826;53.572;10.170;2023-02-28T00:40:03;2.70;99.90
46091;DHT22;31826;53.572;10.170;2023-02-28T00:42:30;2.60;99.90
46091;DHT22;31826;53.572;10.170;2023-02-28T00:44:56;2.60;99.90
46091;DHT22;31826;53.572;10.170;2023-02-28T00:47:22;2.60;99.90
46091;DHT22;31826;53.572;10.170;2023-02-28T00:49:47;2.60;99.90
46091;DHT22;31826;53.572;10.170;2023-02-28T00:52:13;2.50;99.90
46091;DHT22;31826;53.572;10.170;2023-02-28T00:54:39;2.40;99.90
46091;DHT22;31826;53.572;10.170;2023-02-28T00:57:04;2.40;99.90
46091;DHT22;31826;53.572;10.170;2023-02-28T00:59:30;2.20;99.90
46091;DHT22;31826;53.572;10.170;2023-02-28T01:01:56;2.10;99.90
46091;DHT22;31826;53.572;10.170;2023-02-28T01:04:22;2.00;99.90
46091;DHT22;31826;53.572;10.170;2023-02-28T01:06:47;1.90;99.90
46091;DHT22;31826;53.572;10.170;2023-02-28T01:09:13;1.90;99.90
46091;DHT22;31826;53.572;10.170;2023-02-28T01:11:39;1.90;99.90
46091;DHT22;31826;53.572;10.170;2023-02-28T01:14:07;2.00;99.90
46091;DHT22;31826;53.572;10.170;2023-02-28T01:16:33;1.90;99.90
46091;DHT22;31826;53.572;10.170;2023-02-28T01:18:59;2.00;99.90
46091;DHT22;31826;53.572;10.170;2023-02-28T01:21:25;1.90;99.90
46091;DHT22;31826;53.572;10.170;2023-02-28T01:23:50;2.00;99.90
46091;DHT22;31826;53.572;10.170;2023-02-28T01:26:22;2.00;99.90
46091;DHT22;31826;53.572;10.170;2023-02-28T01:28:48;2.00;99.90
46091;DHT22;31826;53.572;10.170;2023-02-28T01:31:14;2.00;99.90
46091;DHT22;31826;53.572;10.170;2023-02-28T01:33:40;2.00;99.90
46091;DHT22;31826;53.572;10.170;2023-02-28T01:36:12;1.90;99.90
46091;DHT22;31826;53.572;10.170;2023-02-28T01:38:38;2.00;99.90
46091;DHT22;31826;53.572;10.170;2023-02-28T01:41:05;2.00;99.90
46091;DHT22;31826;53.572;10.170;2023-02-28T01:46:08;2.00;99.90
46091;DHT22;31826;53.572;10.170;2023-02-28T01:48:37;2.00;99.90
46091;DHT22;31826;53.572;10.170;2023-02-28T01:51:09;2.00;99.90
46091;DHT22;31826;53.572;10.170;2023-02-28T01:53:46;1.90;99.90
46091;DHT22;31826;53.572;10.170;2023-02-28T01:56:14;1.90;99.90
46091;DHT22;31826;53.572;10.170;2023-02-28T01:58:50;1.80;99.90
46091;DHT22;31826;53.572;10.170;2023-02-28T02:01:16;1.80;99.90
46091;DHT22;31826;53.572;10.170;2023-02-28T02:03:53;1.70;99.90
46091;DHT22;31826;53.572;10.170;2023-02-28T02:06:27;1.60;99.90
46091;DHT22;31826;53.572;10.170;2023-02-28T02:08:54;1.60;99.90
46091;DHT22;31826;53.572;10.170;2023-02-28T02:11:22;1.40;99.90
46091;DHT22;31826;53.572;10.170;2023-02-28T02:14:01;1.30;99.90
46091;DHT22;31826;53.572;10.170;2023-02-28T02:33:25;0.70;99.90
46091;DHT22;31826;53.572;10.170;2023-02-28T02:35:59;0.70;99.90
46091;DHT22;31826;53.572;10.170;2023-02-28T02:41:24;0.70;99.90
46091;DHT22;31826;53.572;10.170;2023-02-28T02:46:39;0.70;99.90
46091;DHT22;31826;53.572;10.170;2023-02-28T02:49:09;0.50;99.90
46091;DHT22;31826;53.572;10.170;2023-02-28T02:51:40;0.40;99.90
46091;DHT22;31826;53.572;10.170;2023-02-28T02:54:28;0.30;99.90
46091;DHT22;31826;53.572;10.170;2023-02-28T02:56:59;0.10;99.90
46091;DHT22;31826;53.572;10.170;2023-02-28T02:59:28;0.10;99.90
46091;DHT22;31826;53.572;10.170;2023-02-28T03:01:59;0.20;99.90
46091;DHT22;31826;53.572;10.170;2023-02-28T03:04:28;0.00;99.90
46091;DHT22;31826;53.572;10.170;2023-02-28T03:06:55;0.10;99.90
46091;DHT22;31826;53.572;10.170;2023-02-28T03:09:22;0.10;99.90
46091;DHT22;31826;53.572;10.170;2023-02-28T03:11:48;0.10;99.90
46091;DHT22;31826;53.572;10.170;2023-02-28T03:14:37;0.20;99.90
46091;DHT22;31826;53.572;10.170;2023-02-28T03:20:07;0.20;99.90
46091;DHT22;31826;53.572;10.170;2023-02-28T03:23:00;0.30;99.90
46091;DHT22;31826;53.572;10.170;2023-02-28T03:30:51;0.20;99.90
46091;DHT22;31826;53.572;10.170;2023-02-28T03:33:41;0.20;99.90
46091;DHT22;31826;53.572;10.170;2023-02-28T03:36:16;0.10;99.90
46091;DHT22;31826;53.572;10.170;2023-02-28T03:38:59;-0.10;99.90
46091;DHT22;31826;53.572;10.170;2023-02-28T03:44:25;-0.20;99.90
46091;DHT22;31826;53.572;10.170;2023-02-28T03:47:08;-0.30;99.90
46091;DHT22;31826;53.572;10.170;2023-02-28T03:49:53;-0.30;99.90
46091;DHT22;31826;53.572;10.170;2023-02-28T03:52:22;-0.30;99.90
46091;DHT22;31826;53.572;10.170;2023-02-28T03:54:56;-0.30;99.90
46091;DHT22;31826;53.572;10.170;2023-02-28T03:58:05;-0.20;99.90
46091;DHT22;31826;53.572;10.170;2023-02-28T04:00:37;-0.20;99.90
46091;DHT22;31826;53.572;10.170;2023-02-28T04:03:05;-0.10;99.90
46091;DHT22;31826;53.572;10.170;2023-02-28T04:05:32;-0.20;99.90
46091;DHT22;31826;53.572;10.170;2023-02-28T04:08:06;-0.20;99.90
46091;DHT22;31826;53.572;10.170;2023-02-28T04:10:32;-0.20;99.90
46091;DHT22;31826;53.572;10.170;2023-02-28T04:12:58;-0.30;99.90
46091;DHT22;31826;53.572;10.170;2023-02-28T04:15:23;-0.40;99.90
46091;DHT22;31826;53.572;10.170;2023-02-28T04:17:50;-0.40;99.90
46091;DHT22;31826;53.572;10.170;2023-02-28T04:20:16;-0.50;99.90
46091;DHT22;31826;53.572;10.170;2023-02-28T04:22:42;-0.60;99.90
46091;DHT22;31826;53.572;10.170;2023-02-28T04:25:08;-0.60;99.90
46091;DHT22;31826;53.572;10.170;2023-02-28T04:27:34;-0.60;99.90
46091;DHT22;31826;53.572;10.170;2023-02-28T04:30:00;-0.70;99.90
46091;DHT22;31826;53.572;10.170;2023-02-28T04:32:26;-0.70;99.90
46091;DHT22;31826;53.572;10.170;2023-02-28T04:34:51;-0.60;99.90
46091;DHT22;31826;53.572;10.170;2023-02-28T04:37:17;-0.60;99.90
46091;DHT22;31826;53.572;10.170;2023-02-28T04:39:43;-0.50;99.90
46091;DHT22;31826;53.572;10.170;2023-02-28T04:42:09;-0.50;99.90
46091;DHT22;31826;53.572;10.170;2023-02-28T04:44:35;-0.50;99.90
46091;DHT22;31826;53.572;10.170;2023-02-28T04:47:01;-0.50;99.90
46091;DHT22;31826;53.572;10.170;2023-02-28T04:49:27;-0.50;99.90
46091;DHT22;31826;53.572;10.170;2023-02-28T04:51:52;-0.50;99.90
46091;DHT22;31826;53.572;10.170;2023-02-28T04:54:18;-0.50;99.90
46091;DHT22;31826;53.572;10.170;2023-02-28T04:56:44;-0.50;99.90
46091;DHT22;31826;53.572;10.170;2023-02-28T04:59:10;-0.50;99.90
46091;DHT22;31826;53.572;10.170;2023-02-28T05:01:36;-0.60;99.90
46091;DHT22;31826;53.572;10.170;2023-02-28T05:04:03;-0.60;99.90
46091;DHT22;31826;53.572;10.170;2023-02-28T05:06:31;-0.60;99.90
46091;DHT22;31826;53.572;10.170;2023-02-28T05:08:57;-0.60;99.90
46091;DHT22;31826;53.572;10.170;2023-02-28T05:11:29;-0.70;99.90
46091;DHT22;31826;53.572;10.170;2023-02-28T05:13:59;-0.80;99.90
46091;DHT22;31826;53.572;10.170;2023-02-28T05:16:24;-0.80;99.90
46091;DHT22;31826;53.572;10.170;2023-02-28T05:18:50;-0.80;99.90
46091;DHT22;31826;53.572;10.170;2023-02-28T05:23:52;-0.90;99.90
46091;DHT22;31826;53.572;10.170;2023-02-28T05:26:19;-0.80;99.90
46091;DHT22;31826;53.572;10.170;2023-02-28T05:28:45;-0.90;99.90
46091;DHT22;31826;53.572;10.170;2023-02-28T05:31:11;-0.90;99.90
46091;DHT22;31826;53.572;10.170;2023-02-28T05:33:37;-0.90;99.90
46091;DHT22;31826;53.572;10.170;2023-02-28T05:36:03;-0.90;99.90
46091;DHT22;31826;53.572;10.170;2023-02-28T05:38:29;-1.00;99.90
46091;DHT22;31826;53.572;10.170;2023-02-28T05:40:55;-1.00;99.90
46091;DHT22;31826;53.572;10.170;2023-02-28T05:43:22;-0.90;99.90
46091;DHT22;31826;53.572;10.170;2023-02-28T05:45:47;-0.90;99.90
46091;DHT22;31826;53.572;10.170;2023-02-28T05:48:13;-1.00;99.90
46091;DHT22;31826;53.572;10.170;2023-02-28T05:50:39;-1.00;99.90
46091;DHT22;31826;53.572;10.170;2023-02-28T05:53:05;-1.20;99.90
46091;DHT22;31826;53.572;10.170;2023-02-28T05:55:30;-1.20;99.90
46091;DHT22;31826;53.572;10.170;2023-02-28T05:57:56;-1.20;99.90
46091;DHT22;31826;53.572;10.170;2023-02-28T06:00:22;-1.10;99.90
46091;DHT22;31826;53.572;10.170;2023-02-28T06:02:48;-1.20;99.90
46091;DHT22;31826;53.572;10.170;2023-02-28T06:05:17;-1.30;99.90
46091;DHT22;31826;53.572;10.170;2023-02-28T06:07:43;-1.30;99.90
46091;DHT22;31826;53.572;10.170;2023-02-28T06:10:13;-1.20;99.90
46091;DHT22;31826;53.572;10.170;2023-02-28T06:12:39;-1.20;99.90
46091;DHT22;31826;53.572;10.170;2023-02-28T06:15:07;-1.20;99.90
46091;DHT22;31826;53.572;10.170;2023-02-28T06:17:37;-1.20;99.90
46091;DHT22;31826;53.572;10.170;2023-02-28T06:20:04;-1.30;99.90
46091;DHT22;31826;53.572;10.170;2023-02-28T06:22:30;-1.30;99.90
46091;DHT22;31826;53.572;10.170;2023-02-28T06:24:56;-1.30;99.90
46091;DHT22;31826;53.572;10.170;2023-02-28T06:27:23;-1.30;99.90
46091;DHT22;31826;53.572;10.170;2023-02-28T06:29:52;-1.30;99.90
46091;DHT22;31826;53.572;10.170;2023-02-28T06:32:18;-1.20;99.90
46091;DHT22;31826;53.572;10.170;2023-02-28T06:34:45;-1.30;99.90
46091;DHT22;31826;53.572;10.170;2023-02-28T06:37:10;-1.30;99.90
46091;DHT22;31826;53.572;10.170;2023-02-28T06:39:36;-1.40;99.90
46091;DHT22;31826;53.572;10.170;2023-02-28T06:42:02;-1.40;99.90
46091;DHT22;31826;53.572;10.170;2023-02-28T06:44:28;-1.50;99.90
46091;DHT22;31826;53.572;10.170;2023-02-28T06:47:01;-1.40;99.90
46091;DHT22;31826;53.572;10.170;2023-02-28T06:49:29;-1.50;99.90
46091;DHT22;31826;53.572;10.170;2023-02-28T06:51:55;-1.50;99.90
46091;DHT22;31826;53.572;10.170;2023-02-28T06:54:21;-1.50;99.90
46091;DHT22;31826;53.572;10.170;2023-02-28T06:56:46;-1.60;99.90
46091;DHT22;31826;53.572;10.170;2023-02-28T06:59:13;-1.40;99.90
46091;DHT22;31826;53.572;10.170;2023-02-28T07:01:39;-1.40;99.90
46091;DHT22;31826;53.572;10.170;2023-02-28T07:04:05;-1.30;99.90
46091;DHT22;31826;53.572;10.170;2023-02-28T07:06:31;-1.10;99.90
46091;DHT22;31826;53.572;10.170;2023-02-28T07:08:57;-1.10;99.90
46091;DHT22;31826;53.572;10.170;2023-02-28T07:11:24;-1.10;99.90
46091;DHT22;31826;53.572;10.170;2023-02-28T07:13:54;-0.90;99.90
46091;DHT22;31826;53.572;10.170;2023-02-28T07:16:20;-0.90;99.90
46091;DHT22;31826;53.572;10.170;2023-02-28T07:18:47;-0.80;99.90
46091;DHT22;31826;53.572;10.170;2023-02-28T07:21:13;-0.80;99.90
46091;DHT22;31826;53.572;10.170;2023-02-28T07:23:39;-0.70;99.90
46091;DHT22;31826;53.572;10.170;2023-02-28T07:26:06;-0.60;99.90
46091;DHT22;31826;53.572;10.170;2023-02-28T07:28:32;-0.50;99.90
46091;DHT22;31826;53.572;10.170;2023-02-28T07:31:06;-0.40;99.90
46091;DHT22;31826;53.572;10.170;2023-02-28T07:33:32;-0.40;99.90
46091;DHT22;31826;53.572;10.170;2023-02-28T07:36:08;-0.30;99.90
46091;DHT22;31826;53.572;10.170;2023-02-28T07:38:35;-0.10;99.90
46091;DHT22;31826;53.572;10.170;2023-02-28T07:41:03;-0.10;99.90
46091;DHT22;31826;53.572;10.170;2023-02-28T07:43:32;0.00;99.90
46091;DHT22;31826;53.572;10.170;2023-02-28T07:46:05;0.00;99.90
46091;DHT22;31826;53.572;10.170;2023-02-28T07:48:31;0.20;99.90
46091;DHT22;31826;53.572;10.170;2023-02-28T07:50:58;0.20;99.90
46091;DHT22;31826;53.572;10.170;2023-02-28T07:53:25;0.30;99.90
46091;DHT22;31826;53.572;10.170;2023-02-28T07:55:53;0.40;99.90
46091;DHT22;31826;53.572;10.170;2023-02-28T07:58:19;0.40;99.90
46091;DHT22;31826;53.572;10.170;2023-02-28T08:00:45;0.40;99.90
46091;DHT22;31826;53.572;10.170;2023-02-28T08:03:12;0.50;99.90
46091;DHT22;31826;53.572;10.170;2023-02-28T08:05:41;0.60;99.90
46091;DHT22;31826;53.572;10.170;2023-02-28T08:08:07;0.60;99.90
46091;DHT22;31826;53.572;10.170;2023-02-28T08:10:33;0.70;99.90
46091;DHT22;31826;53.572;10.170;2023-02-28T08:12:59;0.80;99.90
46091;DHT22;31826;53.572;10.170;2023-02-28T08:15:26;0.90;99.90
46091;DHT22;31826;53.572;10.170;2023-02-28T08:17:52;0.90;99.90
46091;DHT22;31826;53.572;10.170;2023-02-28T08:20:17;1.00;99.90
46091;DHT22;31826;53.572;10.170;2023-02-28T08:22:43;1.10;99.90
46091;DHT22;31826;53.572;10.170;2023-02-28T08:25:09;1.20;99.90
46091;DHT22;31826;53.572;10.170;2023-02-28T08:27:35;1.40;99.90
46091;DHT22;31826;53.572;10.170;2023-02-28T08:30:01;1.40;99.90
46091;DHT22;31826;53.572;10.170;2023-02-28T08:32:27;1.40;99.90
46091;DHT22;31826;53.572;10.170;2023-02-28T08:34:52;1.50;99.90
46091;DHT22;31826;53.572;10.170;2023-02-28T08:37:18;1.60;99.90
46091;DHT22;31826;53.572;10.170;2023-02-28T08:39:44;1.80;99.90
46091;DHT22;31826;53.572;10.170;2023-02-28T08:42:10;1.80;99.90
46091;DHT22;31826;53.572;10.170;2023-02-28T08:44:35;1.80;99.90
46091;DHT22;31826;53.572;10.170;2023-02-28T08:47:01;1.80;99.90
46091;DHT22;31826;53.572;10.170;2023-02-28T08:49:27;2.00;99.90
46091;DHT22;31826;53.572;10.170;2023-02-28T08:51:54;2.10;99.90
46091;DHT22;31826;53.572;10.170;2023-02-28T08:54:21;2.20;99.90
46091;DHT22;31826;53.572;10.170;2023-02-28T08:56:47;2.30;99.90
46091;DHT22;31826;53.572;10.170;2023-02-28T08:59:12;2.40;99.90
46091;DHT22;31826;53.572;10.170;2023-02-28T09:01:39;2.50;99.90
46091;DHT22;31826;53.572;10.170;2023-02-28T09:04:06;2.60;99.90
46091;DHT22;31826;53.572;10.170;2023-02-28T09:06:34;2.60;99.90
46091;DHT22;31826;53.572;10.170;2023-02-28T09:09:00;2.70;99.90
46091;DHT22;31826;53.572;10.170;2023-02-28T09:11:27;2.90;99.90
46091;DHT22;31826;53.572;10.170;2023-02-28T09:13:53;3.10;99.90
46091;DHT22;31826;53.572;10.170;2023-02-28T09:16:20;3.20;99.90
46091;DHT22;31826;53.572;10.170;2023-02-28T09:18:47;3.30;99.90
46091;DHT22;31826;53.572;10.170;2023-02-28T09:21:16;3.30;99.90
46091;DHT22;31826;53.572;10.170;2023-02-28T09:23:44;3.40;99.90
46091;DHT22;31826;53.572;10.170;2023-02-28T09:26:23;3.50;99.90
46091;DHT22;31826;53.572;10.170;2023-02-28T09:28:50;3.80;99.90
46091;DHT22;31826;53.572;10.170;2023-02-28T09:31:20;3.70;99.90
46091;DHT22;31826;53.572;10.170;2023-02-28T09:33:50;3.80;99.90
46091;DHT22;31826;53.572;10.170;2023-02-28T09:36:17;3.90;99.90
46091;DHT22;31826;53.572;10.170;2023-02-28T09:38:43;4.10;99.90
46091;DHT22;31826;53.572;10.170;2023-02-28T09:41:22;4.20;99.90
46091;DHT22;31826;53.572;10.170;2023-02-28T09:43:56;4.30;99.90
46091;DHT22;31826;53.572;10.170;2023-02-28T09:46:42;4.40;99.90
46091;DHT22;31826;53.572;10.170;2023-02-28T09:49:17;4.60;99.90
46091;DHT22;31826;53.572;10.170;2023-02-28T09:52:04;4.60;99.90
46091;DHT22;31826;53.572;10.170;2023-02-28T09:54:32;4.80;99.90
46091;DHT22;31826;53.572;10.170;2023-02-28T10:00:29;5.90;97.80
46091;DHT22;31826;53.572;10.170;2023-02-28T10:06:29;7.10;96.50
46091;DHT22;31826;53.572;10.170;2023-02-28T10:08:27;7.80;96.60
46091;DHT22;31826;53.572;10.170;2023-02-28T10:11:03;8.10;92.70
46091;DHT22;31826;53.572;10.170;2023-02-28T10:13:51;8.50;94.60
46091;DHT22;31826;53.572;10.170;2023-02-28T10:16:35;9.20;92.60
46091;DHT22;31826;53.572;10.170;2023-02-28T10:19:19;9.50;93.00
46091;DHT22;31826;53.572;10.170;2023-02-28T10:22:01;10.40;93.30
46091;DHT22;31826;53.572;10.170;2023-02-28T10:24:39;10.70;90.30
46091;DHT22;31826;53.572;10.170;2023-02-28T10:27:31;11.30;90.20
46091;DHT22;31826;53.572;10.170;2023-02-28T10:30:00;10.80;87.60
46091;DHT22;31826;53.572;10.170;2023-02-28T10:32:31;10.30;88.50
46091;DHT22;31826;53.572;10.170;2023-02-28T10:35:14;9.70;90.60
46091;DHT22;31826;53.572;10.170;2023-02-28T10:37:45;9.50;90.20
46091;DHT22;31826;53.572;10.170;2023-02-28T10:45:25;8.80;90.50
46091;DHT22;31826;53.572;10.170;2023-02-28T10:52:54;10.30;89.70
46091;DHT22;31826;53.572;10.170;2023-02-28T10:55:24;10.40;87.00
46091;DHT22;31826;53.572;10.170;2023-02-28T10:57:50;10.40;85.20
46091;DHT22;31826;53.572;10.170;2023-02-28T11:00:21;11.30;86.80
46091;DHT22;31826;53.572;10.170;2023-02-28T11:02:48;11.60;88.90
46091;DHT22;31826;53.572;10.170;2023-02-28T11:05:34;12.50;83.70
46091;DHT22;31826;53.572;10.170;2023-02-28T11:10:33;13.90;77.40
46091;DHT22;31826;53.572;10.170;2023-02-28T11:13:02;13.90;75.50
46091;DHT22;31826;53.572;10.170;2023-02-28T11:15:37;14.20;76.30
46091;DHT22;31826;53.572;10.170;2023-02-28T11:20:38;13.80;75.80
46091;DHT22;31826;53.572;10.170;2023-02-28T11:23:11;14.20;75.60
46091;DHT22;31826;53.572;10.170;2023-02-28T11:25:39;14.70;75.90
46091;DHT22;31826;53.572;10.170;2023-02-28T11:28:22;15.20;76.20
46091;DHT22;31826;53.572;10.170;2023-02-28T11:31:04;15.90;76.30
46091;DHT22;31826;53.572;10.170;2023-02-28T11:33:42;15.90;70.30
46091;DHT22;31826;53.572;10.170;2023-02-28T11:36:31;15.80;69.10
46091;DHT22;31826;53.572;10.170;2023-02-28T11:39:09;15.70;69.50
46091;DHT22;31826;53.572;10.170;2023-02-28T11:42:07;16.00;70.80
46091;DHT22;31826;53.572;10.170;2023-02-28T11:45:11;16.30;66.60
46091;DHT22;31826;53.572;10.170;2023-02-28T11:55:49;14.50;66.70
46091;DHT22;31826;53.572;10.170;2023-02-28T12:12:41;16.60;68.00
46091;DHT22;31826;53.572;10.170;2023-02-28T12:15:32;16.60;59.80
46091;DHT22;31826;53.572;10.170;2023-02-28T12:21:45;14.40;62.10
46091;DHT22;31826;53.572;10.170;2023-02-28T12:24:17;14.10;64.80
46091;DHT22;31826;53.572;10.170;2023-02-28T12:26:47;15.50;65.30
46091;DHT22;31826;53.572;10.170;2023-02-28T12:29:26;16.10;60.70
46091;DHT22;31826;53.572;10.170;2023-02-28T12:34:28;16.40;64.00
46091;DHT22;31826;53.572;10.170;2023-02-28T12:36:59;16.90;62.10
46091;DHT22;31826;53.572;10.170;2023-02-28T12:39:29;17.50;61.30
46091;DHT22;31826;53.572;10.170;2023-02-28T12:42:11;17.70;62.80
46091;DHT22;31826;53.572;10.170;2023-02-28T12:44:46;18.00;58.90
46091;DHT22;31826;53.572;10.170;2023-02-28T12:47:17;17.90;56.70
46091;DHT22;31826;53.572;10.170;2023-02-28T12:49:48;17.70;54.60
46091;DHT22;31826;53.572;10.170;2023-02-28T12:52:23;17.30;56.50
46091;DHT22;31826;53.572;10.170;2023-02-28T12:54:55;17.30;56.90
46091;DHT22;31826;53.572;10.170;2023-02-28T13:00:01;17.10;55.60
46091;DHT22;31826;53.572;10.170;2023-02-28T13:03:03;16.70;59.40
46091;DHT22;31826;53.572;10.170;2023-02-28T13:05:45;17.00;58.50
46091;DHT22;31826;53.572;10.170;2023-02-28T13:11:31;17.70;56.90
46091;DHT22;31826;53.572;10.170;2023-02-28T13:13:59;17.80;56.10
46091;DHT22;31826;53.572;10.170;2023-02-28T13:16:24;17.00;53.10
46091;DHT22;31826;53.572;10.170;2023-02-28T13:18:50;15.90;53.70
46091;DHT22;31826;53.572;10.170;2023-02-28T13:21:27;15.10;56.80
46091;DHT22;31826;53.572;10.170;2023-02-28T13:34:40;11.20;59.40
46091;DHT22;31826;53.572;10.170;2023-02-28T13:39:51;10.50;62.10
46091;DHT22;31826;53.572;10.170;2023-02-28T13:42:22;10.40;63.10
46091;DHT22;31826;53.572;10.170;2023-02-28T13:59:12;9.30;66.20
46091;DHT22;31826;53.572;10.170;2023-02-28T14:05:00;9.00;66.70
46091;DHT22;31826;53.572;10.170;2023-02-28T14:07:23;9.00;68.00
46091;DHT22;31826;53.572;10.170;2023-02-28T14:10:00;8.90;69.60
46091;DHT22;31826;53.572;10.170;2023-02-28T14:12:59;8.80;68.70
46091;DHT22;31826;53.572;10.170;2023-02-28T14:15:45;8.80;72.90
46091;DHT22;31826;53.572;10.170;2023-02-28T14:21:11;8.70;70.40
46091;DHT22;31826;53.572;10.170;2023-02-28T14:29:41;8.50;73.70
46091;DHT22;31826;53.572;10.170;2023-02-28T14:38:24;8.30;75.00
46091;DHT22;31826;53.572;10.170;2023-02-28T14:40:52;8.20;73.50
46091;DHT22;31826;53.572;10.170;2023-02-28T14:43:27;8.30;70.90
46091;DHT22;31826;53.572;10.170;2023-02-28T14:45:59;8.10;70.90
46091;DHT22;31826;53.572;10.170;2023-02-28T14:48:26;8.10;71.70
46091;DHT22;31826;53.572;10.170;2023-02-28T14:50:55;8.00;72.40
46091;DHT22;31826;53.572;10.170;2023-02-28T14:53:23;8.10;72.20
46091;DHT22;31826;53.572;10.170;2023-02-28T14:55:50;8.00;72.80
46091;DHT22;31826;53.572;10.170;2023-02-28T14:58:29;8.00;73.00
46091;DHT22;31826;53.572;10.170;2023-02-28T15:00:57;8.00;75.50
46091;DHT22;31826;53.572;10.170;2023-02-28T15:03:35;7.80;74.80
46091;DHT22;31826;53.572;10.170;2023-02-28T15:06:04;7.90;75.30
46091;DHT22;31826;53.572;10.170;2023-02-28T15:08:30;7.80;75.80
46091;DHT22;31826;53.572;10.170;2023-02-28T15:11:20;7.80;76.00
46091;DHT22;31826;53.572;10.170;2023-02-28T15:13:54;7.90;78.10
46091;DHT22;31826;53.572;10.170;2023-02-28T15:16:36;7.80;76.70
46091;DHT22;31826;53.572;10.170;2023-02-28T15:19:20;7.80;77.60
46091;DHT22;31826;53.572;10.170;2023-02-28T15:21:50;7.80;77.50
46091;DHT22;31826;53.572;10.170;2023-02-28T15:24:45;7.60;77.60
46091;DHT22;31826;53.572;10.170;2023-02-28T15:27:20;7.70;77.90
46091;DHT22;31826;53.572;10.170;2023-02-28T15:29:50;7.60;78.50
46091;DHT22;31826;53.572;10.170;2023-02-28T15:32:30;7.60;77.60
46091;DHT22;31826;53.572;10.170;2023-02-28T15:34:58;7.50;78.50
46091;DHT22;31826;53.572;10.170;2023-02-28T15:37:47;7.50;79.60
46091;DHT22;31826;53.572;10.170;2023-02-28T15:40:38;7.50;78.00
46091;DHT22;31826;53.572;10.170;2023-02-28T15:43:18;7.50;78.00
46091;DHT22;31826;53.572;10.170;2023-02-28T15:46:11;7.50;80.60
46091;DHT22;31826;53.572;10.170;2023-02-28T15:48:58;7.40;79.70
46091;DHT22;31826;53.572;10.170;2023-02-28T15:51:36;7.30;79.00
46091;DHT22;31826;53.572;10.170;2023-02-28T15:54:06;7.20;81.70
46091;DHT22;31826;53.572;10.170;2023-02-28T15:56:43;7.20;81.50
46091;DHT22;31826;53.572;10.170;2023-02-28T15:59:15;7.10;79.00
46091;DHT22;31826;53.572;10.170;2023-02-28T16:01:43;7.10;80.90
46091;DHT22;31826;53.572;10.170;2023-02-28T16:04:19;7.10;82.00
46091;DHT22;31826;53.572;10.170;2023-02-28T16:09:19;7.10;82.60
46091;DHT22;31826;53.572;10.170;2023-02-28T16:11:48;7.00;81.60
46091;DHT22;31826;53.572;10.170;2023-02-28T16:14:22;7.00;81.60
46091;DHT22;31826;53.572;10.170;2023-02-28T16:16:51;6.90;81.90
46091;DHT22;31826;53.572;10.170;2023-02-28T16:19:17;6.90;81.60
46091;DHT22;31826;53.572;10.170;2023-02-28T16:21:44;6.80;82.30
46091;DHT22;31826;53.572;10.170;2023-02-28T16:24:10;6.80;84.20
46091;DHT22;31826;53.572;10.170;2023-02-28T16:26:36;6.80;83.10
46091;DHT22;31826;53.572;10.170;2023-02-28T16:29:05;6.80;84.20
46091;DHT22;31826;53.572;10.170;2023-02-28T16:31:35;6.80;86.00
46091;DHT22;31826;53.572;10.170;2023-02-28T16:34:02;6.70;83.80
46091;DHT22;31826;53.572;10.170;2023-02-28T16:36:29;6.70;83.60
46091;DHT22;31826;53.572;10.170;2023-02-28T16:38:55;6.60;83.80
46091;DHT22;31826;53.572;10.170;2023-02-28T16:41:24;6.60;84.90
46091;DHT22;31826;53.572;10.170;2023-02-28T16:43:53;6.50;85.70
46091;DHT22;31826;53.572;10.170;2023-02-28T16:46:20;6.40;86.40
46091;DHT22;31826;53.572;10.170;2023-02-28T16:48:46;6.10;86.00
46091;DHT22;31826;53.572;10.170;2023-02-28T16:51:17;5.80;87.40
46091;DHT22;31826;53.572;10.170;2023-02-28T16:53:44;5.70;89.80
46091;DHT22;31826;53.572;10.170;2023-02-28T16:56:19;5.60;90.50
46091;DHT22;31826;53.572;10.170;2023-02-28T16:58:46;5.50;90.20
46091;DHT22;31826;53.572;10.170;2023-02-28T17:01:12;5.50;90.40
46091;DHT22;31826;53.572;10.170;2023-02-28T17:03:38;5.50;90.50
46091;DHT22;31826;53.572;10.170;2023-02-28T17:06:09;5.50;90.40
46091;DHT22;31826;53.572;10.170;2023-02-28T17:08:41;5.50;90.50
46091;DHT22;31826;53.572;10.170;2023-02-28T17:11:08;5.50;90.70
46091;DHT22;31826;53.572;10.170;2023-02-28T17:13:34;5.50;90.90
46091;DHT22;31826;53.572;10.170;2023-02-28T17:16:00;5.40;91.40
46091;DHT22;31826;53.572;10.170;2023-02-28T17:18:26;5.30;91.10
46091;DHT22;31826;53.572;10.170;2023-02-28T17:20:54;5.20;91.60
46091;DHT22;31826;53.572;10.170;2023-02-28T17:23:20;5.20;92.20
46091;DHT22;31826;53.572;10.170;2023-02-28T17:25:45;5.10;92.40
46091;DHT22;31826;53.572;10.170;2023-02-28T17:28:19;5.00;92.40
46091;DHT22;31826;53.572;10.170;2023-02-28T17:30:46;4.80;92.50
46091;DHT22;31826;53.572;10.170;2023-02-28T17:33:13;4.80;92.90
46091;DHT22;31826;53.572;10.170;2023-02-28T17:35:38;4.60;93.00
46091;DHT22;31826;53.572;10.170;2023-02-28T17:38:04;4.40;93.50
46091;DHT22;31826;53.572;10.170;2023-02-28T17:40:30;4.40;93.80
46091;DHT22;31826;53.572;10.170;2023-02-28T17:42:55;4.40;94.20
46091;DHT22;31826;53.572;10.170;2023-02-28T17:45:22;4.30;94.40
46091;DHT22;31826;53.572;10.170;2023-02-28T17:47:49;4.30;94.40
46091;DHT22;31826;53.572;10.170;2023-02-28T17:50:21;4.20;94.30
46091;DHT22;31826;53.572;10.170;2023-02-28T17:52:47;4.10;94.80
46091;DHT22;31826;53.572;10.170;2023-02-28T17:55:13;4.00;95.20
46091;DHT22;31826;53.572;10.170;2023-02-28T17:57:39;4.00;95.30
46091;DHT22;31826;53.572;10.170;2023-02-28T18:00:07;3.90;95.50
46091;DHT22;31826;53.572;10.170;2023-02-28T18:02:33;3.80;95.60
46091;DHT22;31826;53.572;10.170;2023-02-28T18:04:59;3.70;95.90
46091;DHT22;31826;53.572;10.170;2023-02-28T18:07:25;3.60;96.30